createdAt,value
2022-07-29T00:00:15.846Z,45.93
2022-07-29T00:01:19.791Z,45.93
2022-07-29T00:02:21.565Z,45.90
2022-07-29T00:03:24.286Z,45.80
2022-07-29T00:04:25.936Z,46.01
2022-07-29T00:05:28.780Z,46.08
2022-07-29T00:06:31.853Z,45.69
2022-07-29T00:07:34.449Z,45.88
2022-07-29T00:08:36.028Z,46.09
2022-07-29T00:09:50.407Z,45.92
2022-07-29T00:10:53.834Z,46.28
2022-07-29T00:11:59.172Z,46.20
2022-07-29T00:13:00.952Z,46.28
2022-07-29T00:14:03.556Z,45.94
2022-07-29T00:15:06.250Z,46.40
2022-07-29T00:16:08.853Z,46.28
2022-07-29T00:17:13.674Z,46.15
2022-07-29T00:18:21.693Z,46.28
2022-07-29T00:19:23.332Z,46.32
2022-07-29T00:20:25.936Z,46.24
2022-07-29T00:21:27.671Z,46.54
2022-07-29T00:22:31.681Z,46.24
2022-07-29T00:23:36.716Z,46.47
2022-07-29T00:24:39.583Z,46.47
2022-07-29T00:25:41.261Z,46.37
2022-07-29T00:26:43.862Z,46.59
2022-07-29T00:27:46.684Z,46.26
2022-07-29T00:28:49.292Z,46.47
2022-07-29T00:29:51.106Z,46.39
2022-07-29T00:30:53.738Z,46.41
2022-07-29T00:31:55.756Z,46.20
2022-07-29T00:32:58.369Z,46.48
2022-07-29T00:34:00.040Z,46.54
2022-07-29T00:35:20.190Z,46.38
2022-07-29T00:36:22.243Z,46.39
2022-07-29T00:37:25.097Z,46.33
2022-07-29T00:38:28.145Z,46.40
2022-07-29T00:39:31.315Z,46.53
2022-07-29T00:40:32.913Z,46.67
2022-07-29T00:41:35.477Z,46.43
2022-07-29T00:42:43.632Z,46.48
2022-07-29T00:43:46.713Z,46.39
2022-07-29T00:44:48.325Z,46.69
2022-07-29T00:45:50.933Z,46.62
2022-07-29T00:46:52.890Z,46.35
2022-07-29T00:47:55.570Z,46.77
2022-07-29T00:48:58.217Z,46.53
2022-07-29T00:49:59.910Z,46.75
2022-07-29T00:51:04.979Z,46.82
2022-07-29T00:52:08.363Z,46.50
2022-07-29T00:53:13.758Z,46.50
2022-07-29T00:54:17.135Z,46.52
2022-07-29T00:55:20.049Z,46.78
2022-07-29T00:56:21.710Z,46.67
2022-07-29T00:57:24.424Z,46.69
2022-07-29T00:58:27.707Z,46.76
2022-07-29T00:59:35.268Z,46.72
2022-07-29T01:00:42.203Z,46.79
2022-07-29T01:01:44.458Z,46.63
2022-07-29T01:02:49.313Z,46.89
2022-07-29T01:03:52.682Z,46.60
2022-07-29T01:04:54.758Z,46.72
2022-07-29T01:05:59.778Z,46.64
2022-07-29T01:07:03.191Z,46.86
2022-07-29T01:08:06.920Z,46.74
2022-07-29T01:09:10.516Z,46.65
2022-07-29T01:10:21.983Z,46.97
2022-07-29T01:11:24.149Z,46.71
2022-07-29T01:12:34.950Z,47.04
2022-07-29T01:13:37.554Z,46.76
2022-07-29T01:14:45.388Z,46.79
2022-07-29T01:15:53.538Z,46.84
2022-07-29T01:17:02.540Z,47.27
2022-07-29T01:18:13.068Z,47.14
2022-07-29T01:19:35.181Z,47.06
2022-07-29T01:21:00.464Z,47.14
2022-07-29T01:22:25.530Z,47.42
2022-07-29T01:23:55.950Z,47.40
2022-07-29T01:25:17.044Z,47.16
2022-07-29T01:26:44.661Z,47.26
2022-07-29T01:28:02.174Z,47.20
2022-07-29T01:29:12.828Z,47.40
2022-07-29T01:30:15.703Z,47.33
2022-07-29T01:31:25.341Z,47.59
2022-07-29T01:32:33.498Z,47.42
2022-07-29T01:33:51.099Z,47.33
2022-07-29T01:34:57.854Z,47.50
2022-07-29T01:36:02.291Z,47.50
2022-07-29T01:37:16.533Z,47.46
2022-07-29T01:38:23.064Z,47.57
2022-07-29T01:39:33.380Z,47.64
2022-07-29T01:40:41.654Z,47.69
2022-07-29T01:41:51.285Z,47.80
2022-07-29T01:42:58.360Z,47.72
2022-07-29T01:44:04.851Z,47.64
2022-07-29T01:45:13.540Z,47.41
2022-07-29T01:46:22.014Z,47.31
2022-07-29T01:47:28.521Z,47.24
2022-07-29T01:48:41.126Z,47.43
2022-07-29T01:49:48.544Z,47.25
2022-07-29T01:50:59.401Z,47.48
2022-07-29T01:52:06.697Z,47.83
2022-07-29T01:53:12.550Z,47.50
2022-07-29T01:54:20.860Z,47.74
2022-07-29T01:55:29.270Z,47.43
2022-07-29T01:56:34.663Z,47.52
2022-07-29T01:57:39.929Z,47.88
2022-07-29T01:58:44.747Z,47.96
2022-07-29T01:59:49.171Z,47.80
2022-07-29T02:00:53.216Z,47.70
2022-07-29T02:01:59.185Z,47.88
2022-07-29T02:03:06.345Z,47.81
2022-07-29T02:04:10.879Z,47.83
2022-07-29T02:05:16.754Z,47.76
2022-07-29T02:06:23.395Z,47.79
2022-07-29T02:07:28.553Z,48.05
2022-07-29T02:08:31.432Z,47.79
2022-07-29T02:09:36.611Z,48.13
2022-07-29T02:10:41.239Z,47.62
2022-07-29T02:11:49.530Z,47.68
2022-07-29T02:12:51.382Z,47.60
2022-07-29T02:13:55.598Z,48.00
2022-07-29T02:15:01.784Z,47.62
2022-07-29T02:16:08.593Z,47.89
2022-07-29T02:17:13.153Z,47.51
2022-07-29T02:18:19.604Z,47.55
2022-07-29T02:19:24.263Z,47.75
2022-07-29T02:20:28.083Z,48.14
2022-07-29T02:21:32.998Z,47.65
2022-07-29T02:22:38.902Z,48.15
2022-07-29T02:23:51.599Z,48.18
2022-07-29T02:24:55.777Z,48.08
2022-07-29T02:25:58.762Z,48.04
2022-07-29T02:27:03.431Z,48.49
2022-07-29T02:28:07.520Z,48.47
2022-07-29T02:29:11.694Z,48.32
2022-07-29T02:30:14.120Z,48.24
2022-07-29T02:31:20.952Z,48.44
2022-07-29T02:32:25.389Z,48.62
2022-07-29T02:33:29.745Z,48.34
2022-07-29T02:34:34.019Z,48.53
2022-07-29T02:35:36.754Z,48.07
2022-07-29T02:36:39.585Z,48.66
2022-07-29T02:37:45.057Z,48.31
2022-07-29T02:38:53.613Z,48.52
2022-07-29T02:39:57.508Z,48.39
2022-07-29T02:41:00.985Z,48.59
2022-07-29T02:42:07.400Z,48.49
2022-07-29T02:43:10.695Z,48.62
2022-07-29T02:44:15.100Z,48.66
2022-07-29T02:45:17.155Z,48.88
2022-07-29T02:46:29.039Z,48.63
2022-07-29T02:47:41.962Z,48.87
2022-07-29T02:48:56.512Z,48.44
2022-07-29T02:50:04.054Z,48.44
2022-07-29T02:51:12.727Z,48.86
2022-07-29T02:52:41.799Z,48.93
2022-07-29T02:53:46.352Z,48.64
2022-07-29T02:54:56.700Z,49.00
2022-07-29T02:56:00.328Z,49.30
2022-07-29T02:57:08.272Z,49.24
2022-07-29T02:58:16.533Z,49.07
2022-07-29T02:59:23.970Z,48.86
2022-07-29T03:00:29.743Z,49.08
2022-07-29T03:01:36.026Z,49.10
2022-07-29T03:02:39.232Z,49.25
2022-07-29T03:03:45.769Z,48.83
2022-07-29T03:04:52.003Z,49.24
2022-07-29T03:05:55.995Z,49.15
2022-07-29T03:07:01.295Z,49.26
2022-07-29T03:08:06.104Z,49.33
2022-07-29T03:09:13.363Z,49.55
2022-07-29T03:10:15.846Z,49.41
2022-07-29T03:11:19.652Z,49.33
2022-07-29T03:12:43.574Z,49.29
2022-07-29T03:13:45.896Z,49.18
2022-07-29T03:14:49.595Z,49.54
2022-07-29T03:15:51.785Z,49.56
2022-07-29T03:16:56.101Z,49.23
2022-07-29T03:17:58.209Z,49.48
2022-07-29T03:19:01.529Z,49.24
2022-07-29T03:20:03.853Z,49.72
2022-07-29T03:21:06.580Z,49.34
2022-07-29T03:22:08.339Z,49.14
2022-07-29T03:23:11.028Z,49.52
2022-07-29T03:24:25.923Z,49.50
2022-07-29T03:25:28.995Z,49.68
2022-07-29T03:26:30.734Z,49.56
2022-07-29T03:27:33.703Z,49.92
2022-07-29T03:28:35.364Z,49.91
2022-07-29T03:29:39.512Z,50.10
2022-07-29T03:30:41.611Z,50.01
2022-07-29T03:31:47.138Z,50.63
2022-07-29T03:32:53.725Z,51.51
2022-07-29T03:33:55.560Z,52.30
2022-07-29T03:34:58.091Z,53.69
2022-07-29T03:35:59.967Z,54.26
2022-07-29T03:37:07.073Z,55.63
2022-07-29T03:38:09.108Z,56.14
2022-07-29T03:39:14.528Z,57.69
2022-07-29T03:40:23.172Z,58.28
2022-07-29T03:41:27.136Z,58.40
2022-07-29T03:42:34.493Z,59.13
2022-07-29T03:43:39.607Z,59.85
2022-07-29T03:44:53.508Z,59.64
2022-07-29T03:45:57.255Z,60.74
2022-07-29T03:47:03.731Z,62.21
2022-07-29T03:48:09.678Z,63.88
2022-07-29T03:49:14.491Z,64.99
2022-07-29T03:50:17.064Z,65.85
2022-07-29T03:51:19.785Z,66.70
2022-07-29T03:52:37.523Z,67.05
2022-07-29T03:53:39.141Z,67.58
2022-07-29T03:54:41.813Z,67.94
2022-07-29T03:55:46.095Z,68.34
2022-07-29T03:56:51.162Z,68.59
2022-07-29T03:57:53.526Z,69.02
2022-07-29T03:58:57.155Z,69.38
2022-07-29T04:00:00.536Z,69.77
2022-07-29T04:01:02.801Z,70.14
2022-07-29T04:02:07.133Z,70.73
2022-07-29T04:03:11.776Z,70.89
2022-07-29T04:04:15.238Z,71.07
2022-07-29T04:05:19.457Z,71.53
2022-07-29T04:06:22.096Z,71.52
2022-07-29T04:07:23.723Z,71.62
2022-07-29T04:08:26.383Z,71.74
2022-07-29T04:09:28.019Z,72.04
2022-07-29T04:10:32.204Z,72.15
2022-07-29T04:11:57.089Z,72.35
2022-07-29T04:13:00.596Z,72.50
2022-07-29T04:14:02.647Z,72.62
2022-07-29T04:15:05.641Z,72.97
2022-07-29T04:16:07.332Z,72.91
2022-07-29T04:17:09.982Z,72.83
2022-07-29T04:18:13.001Z,72.86
2022-07-29T04:19:15.749Z,72.62
2022-07-29T04:20:17.609Z,72.84
2022-07-29T04:21:20.170Z,72.90
2022-07-29T04:22:21.762Z,72.89
2022-07-29T04:23:25.593Z,73.13
2022-07-29T04:24:27.813Z,73.18
2022-07-29T04:25:30.513Z,73.36
2022-07-29T04:26:32.155Z,73.44
2022-07-29T04:27:34.686Z,73.34
2022-07-29T04:28:36.407Z,73.22
2022-07-29T04:29:57.032Z,73.37
2022-07-29T04:30:59.240Z,73.24
2022-07-29T04:32:01.809Z,73.10
2022-07-29T04:33:05.523Z,73.27
2022-07-29T04:34:09.932Z,73.13
2022-07-29T04:35:11.711Z,73.13
2022-07-29T04:36:28.831Z,73.12
2022-07-29T04:37:31.249Z,72.98
2022-07-29T04:38:33.949Z,72.96
2022-07-29T04:39:35.508Z,73.04
2022-07-29T04:40:38.497Z,73.22
2022-07-29T04:41:40.413Z,73.21
2022-07-29T04:42:46.657Z,73.27
2022-07-29T04:43:49.593Z,73.32
2022-07-29T04:44:52.435Z,73.11
2022-07-29T04:45:54.276Z,72.97
2022-07-29T04:46:58.500Z,73.06
2022-07-29T04:48:00.107Z,72.74
2022-07-29T04:49:02.799Z,72.55
2022-07-29T04:50:08.008Z,72.32
2022-07-29T04:51:10.645Z,72.13
2022-07-29T04:52:12.197Z,72.09
2022-07-29T04:53:14.791Z,71.96
2022-07-29T04:54:16.906Z,71.86
2022-07-29T04:55:19.811Z,71.61
2022-07-29T04:56:21.620Z,71.44
2022-07-29T04:57:24.609Z,71.50
2022-07-29T04:58:27.335Z,71.39
2022-07-29T04:59:29.107Z,71.34
2022-07-29T05:00:33.257Z,71.22
2022-07-29T05:01:35.538Z,71.40
2022-07-29T05:02:38.230Z,71.26
2022-07-29T05:03:40.851Z,71.21
2022-07-29T05:04:42.572Z,71.26
2022-07-29T05:05:46.493Z,71.09
2022-07-29T05:06:49.300Z,71.31
2022-07-29T05:07:50.851Z,71.23
2022-07-29T05:08:53.435Z,71.25
2022-07-29T05:09:57.744Z,71.25
2022-07-29T05:11:11.638Z,71.30
2022-07-29T05:12:14.593Z,71.37
2022-07-29T05:13:17.313Z,71.30
2022-07-29T05:14:19.488Z,71.20
2022-07-29T05:15:22.636Z,71.36
2022-07-29T05:16:24.348Z,71.16
2022-07-29T05:17:27.455Z,71.02
2022-07-29T05:18:29.339Z,71.18
2022-07-29T05:19:32.491Z,71.15
2022-07-29T05:20:35.125Z,71.01
2022-07-29T05:21:39.130Z,71.04
2022-07-29T05:22:40.744Z,71.00
2022-07-29T05:23:43.265Z,71.04
2022-07-29T05:24:44.910Z,71.12
2022-07-29T05:25:47.947Z,70.98
2022-07-29T05:26:49.560Z,71.03
2022-07-29T05:27:52.176Z,70.95
2022-07-29T05:28:54.790Z,70.88
2022-07-29T05:29:57.373Z,71.04
2022-07-29T05:30:59.051Z,70.82
2022-07-29T05:32:01.567Z,70.88
2022-07-29T05:33:03.236Z,70.99
2022-07-29T05:34:05.961Z,70.89
2022-07-29T05:35:08.714Z,70.99
2022-07-29T05:36:11.269Z,71.01
2022-07-29T05:37:14.372Z,70.98
2022-07-29T05:38:17.033Z,71.17
2022-07-29T05:39:18.878Z,70.99
2022-07-29T05:40:22.263Z,71.03
2022-07-29T05:41:24.192Z,71.03
2022-07-29T05:42:27.130Z,70.68
2022-07-29T05:43:30.164Z,70.83
2022-07-29T05:44:32.787Z,70.78
2022-07-29T05:45:34.604Z,70.54
2022-07-29T05:46:52.062Z,70.44
2022-07-29T05:47:53.640Z,70.37
2022-07-29T05:48:56.767Z,70.18
2022-07-29T05:49:58.611Z,70.39
2022-07-29T05:51:01.142Z,70.37
2022-07-29T05:52:02.937Z,70.67
2022-07-29T05:53:18.944Z,70.37
2022-07-29T05:54:22.864Z,70.51
2022-07-29T05:55:24.784Z,70.35
2022-07-29T05:56:27.615Z,70.18
2022-07-29T05:57:29.291Z,70.07
2022-07-29T05:58:31.863Z,70.09
2022-07-29T05:59:37.704Z,69.79
2022-07-29T06:00:39.552Z,69.70
2022-07-29T06:01:42.606Z,69.71
2022-07-29T06:02:44.323Z,69.47
2022-07-29T06:03:46.998Z,69.54
2022-07-29T06:04:49.669Z,69.66
2022-07-29T06:05:52.311Z,69.11
2022-07-29T06:06:53.871Z,69.38
2022-07-29T06:07:56.407Z,69.08
2022-07-29T06:08:59.308Z,69.28
2022-07-29T06:10:02.400Z,68.93
2022-07-29T06:11:05.320Z,69.18
2022-07-29T06:12:08.113Z,68.88
2022-07-29T06:13:09.889Z,68.89
2022-07-29T06:14:12.608Z,68.59
2022-07-29T06:15:14.518Z,68.69
2022-07-29T06:16:28.803Z,69.10
2022-07-29T06:17:32.957Z,68.73
2022-07-29T06:18:34.663Z,68.59
2022-07-29T06:19:37.444Z,68.53
2022-07-29T06:20:39.291Z,68.90
2022-07-29T06:21:44.437Z,68.99
2022-07-29T06:22:46.272Z,69.00
2022-07-29T06:23:49.026Z,68.63
2022-07-29T06:24:51.955Z,68.81
2022-07-29T06:25:54.701Z,68.52
2022-07-29T06:26:56.860Z,68.68
2022-07-29T06:27:59.930Z,68.06
2022-07-29T06:29:02.546Z,68.54
2022-07-29T06:30:07.570Z,68.37
2022-07-29T06:31:09.326Z,68.58
2022-07-29T06:32:13.005Z,68.69
2022-07-29T06:33:17.870Z,68.84
2022-07-29T06:34:20.640Z,68.82
2022-07-29T06:35:37.768Z,68.58
2022-07-29T06:36:42.540Z,68.39
2022-07-29T06:37:44.489Z,68.63
2022-07-29T06:38:51.403Z,68.51
2022-07-29T06:40:10.119Z,68.68
2022-07-29T06:41:13.476Z,68.56
2022-07-29T06:42:15.168Z,68.78
2022-07-29T06:43:17.721Z,68.53
2022-07-29T06:44:20.289Z,68.60
2022-07-29T06:45:23.051Z,68.91
2022-07-29T06:46:24.858Z,69.23
2022-07-29T06:47:27.448Z,69.00
2022-07-29T06:48:29.638Z,69.17
2022-07-29T06:49:32.319Z,69.24
2022-07-29T06:50:33.951Z,69.23
2022-07-29T06:51:36.909Z,69.38
2022-07-29T06:52:38.671Z,69.58
2022-07-29T06:53:58.087Z,69.51
2022-07-29T06:55:03.082Z,69.25
2022-07-29T06:56:09.136Z,69.47
2022-07-29T06:57:11.714Z,69.23
2022-07-29T06:58:15.069Z,69.00
2022-07-29T06:59:17.683Z,69.39
2022-07-29T07:00:19.425Z,69.50
2022-07-29T07:01:22.142Z,69.06
2022-07-29T07:02:24.293Z,68.60
2022-07-29T07:03:27.371Z,68.85
2022-07-29T07:04:29.945Z,69.20
2022-07-29T07:05:31.581Z,68.71
2022-07-29T07:06:34.238Z,69.03
2022-07-29T07:07:35.868Z,69.08
2022-07-29T07:08:38.566Z,68.80
2022-07-29T07:09:41.010Z,69.04
2022-07-29T07:10:45.253Z,68.47
2022-07-29T07:11:49.632Z,68.96
2022-07-29T07:12:51.897Z,68.57
2022-07-29T07:13:57.025Z,68.27
2022-07-29T07:17:25.175Z,67.92
2022-07-29T07:18:28.666Z,68.06
2022-07-29T07:19:30.277Z,67.80
2022-07-29T07:20:33.277Z,67.56
2022-07-29T07:21:36.320Z,67.35
2022-07-29T07:22:39.037Z,67.45
2022-07-29T07:23:41.694Z,67.15
2022-07-29T07:24:43.287Z,67.10
2022-07-29T07:25:47.285Z,66.83
2022-07-29T07:26:49.885Z,67.52
2022-07-29T07:27:52.664Z,67.03
2022-07-29T07:28:55.530Z,67.18
2022-07-29T07:29:57.626Z,66.99
2022-07-29T07:31:00.284Z,66.91
2022-07-29T07:32:02.993Z,66.83
2022-07-29T07:33:07.290Z,66.68
2022-07-29T07:34:09.059Z,66.90
2022-07-29T07:35:12.666Z,66.95
2022-07-29T07:36:14.448Z,66.84
2022-07-29T07:37:17.004Z,66.91
2022-07-29T07:38:19.697Z,67.07
2022-07-29T07:39:21.381Z,66.83
2022-07-29T07:40:24.241Z,66.93
2022-07-29T07:41:28.325Z,67.03
2022-07-29T07:42:34.174Z,67.13
2022-07-29T07:43:37.130Z,67.44
2022-07-29T07:44:57.338Z,66.93
2022-07-29T07:46:01.948Z,67.03
2022-07-29T07:47:12.318Z,66.83
2022-07-29T07:48:15.268Z,66.41
2022-07-29T07:49:17.014Z,66.63
2022-07-29T07:50:19.651Z,66.59
2022-07-29T07:51:21.477Z,66.93
2022-07-29T07:52:24.096Z,66.43
2022-07-29T07:53:25.821Z,66.80
2022-07-29T07:54:28.534Z,66.83
2022-07-29T07:55:47.558Z,66.72
2022-07-29T07:56:54.090Z,66.80
2022-07-29T07:57:57.182Z,66.78
2022-07-29T07:58:58.875Z,66.69
2022-07-29T08:00:02.102Z,66.63
2022-07-29T08:01:07.220Z,66.75
2022-07-29T08:02:11.355Z,67.18
2022-07-29T08:03:17.153Z,67.53
2022-07-29T08:04:25.015Z,67.09
2022-07-29T08:05:30.174Z,67.23
2022-07-29T08:06:32.080Z,67.26
2022-07-29T08:07:34.797Z,67.34
2022-07-29T08:08:38.527Z,67.60
2022-07-29T08:09:40.189Z,67.47
2022-07-29T08:10:56.723Z,67.10
2022-07-29T08:11:59.916Z,67.01
2022-07-29T08:13:04.035Z,67.53
2022-07-29T08:14:05.635Z,67.06
2022-07-29T08:15:09.727Z,66.91
2022-07-29T08:16:15.814Z,67.35
2022-07-29T08:17:18.438Z,66.73
2022-07-29T08:18:20.237Z,67.26
2022-07-29T08:19:22.981Z,66.76
2022-07-29T08:20:27.283Z,66.52
2022-07-29T08:21:28.907Z,66.41
2022-07-29T08:22:31.508Z,67.08
2022-07-29T08:23:46.831Z,66.56
2022-07-29T08:24:55.637Z,66.64
2022-07-29T08:25:57.461Z,66.80
2022-07-29T08:27:01.362Z,67.01
2022-07-29T08:28:03.262Z,66.49
2022-07-29T08:29:05.849Z,66.67
2022-07-29T08:30:08.453Z,66.61
2022-07-29T08:31:11.080Z,66.62
2022-07-29T08:32:12.847Z,66.23
2022-07-29T08:33:16.877Z,66.64
2022-07-29T08:34:19.692Z,66.40
2022-07-29T08:35:35.104Z,65.87
2022-07-29T08:36:38.062Z,65.63
2022-07-29T08:37:40.665Z,65.60
2022-07-29T08:38:42.244Z,65.17
2022-07-29T08:39:44.848Z,65.19
2022-07-29T08:40:47.317Z,64.77
2022-07-29T08:41:56.888Z,64.81
2022-07-29T08:43:04.981Z,64.70
2022-07-29T08:44:09.254Z,64.40
2022-07-29T08:45:11.439Z,64.16
2022-07-29T08:46:15.059Z,64.42
2022-07-29T08:47:18.078Z,64.12
2022-07-29T08:48:23.122Z,64.15
2022-07-29T08:49:26.281Z,64.15
2022-07-29T08:50:28.027Z,64.33
2022-07-29T08:51:32.566Z,64.07
2022-07-29T08:52:37.593Z,64.29
2022-07-29T08:53:43.999Z,64.28
2022-07-29T08:54:47.270Z,64.25
2022-07-29T08:55:50.964Z,64.24
2022-07-29T08:56:54.897Z,65.05
2022-07-29T08:57:58.237Z,64.87
2022-07-29T08:59:05.427Z,64.66
2022-07-29T09:00:11.610Z,64.65
2022-07-29T09:01:19.564Z,64.76
2022-07-29T09:02:28.249Z,64.72
2022-07-29T09:03:32.653Z,65.16
2022-07-29T09:04:37.901Z,65.21
2022-07-29T09:05:47.513Z,65.00
2022-07-29T09:06:53.782Z,65.47
2022-07-29T09:07:56.239Z,65.19
2022-07-29T09:09:01.120Z,65.24
2022-07-29T09:10:05.667Z,64.96
2022-07-29T09:11:08.362Z,64.86
2022-07-29T09:12:12.338Z,64.53
2022-07-29T09:13:13.907Z,64.77
2022-07-29T09:14:17.923Z,64.53
2022-07-29T09:15:19.561Z,64.12
2022-07-29T09:16:43.715Z,64.22
2022-07-29T09:17:48.469Z,64.33
2022-07-29T09:18:50.095Z,64.33
2022-07-29T09:19:53.385Z,64.30
2022-07-29T09:21:13.703Z,64.14
2022-07-29T09:22:31.041Z,63.71
2022-07-29T09:23:32.645Z,64.05
2022-07-29T09:24:40.525Z,63.47
2022-07-29T09:25:42.655Z,63.55
2022-07-29T09:26:47.629Z,63.32
2022-07-29T09:27:52.619Z,63.47
2022-07-29T09:28:54.396Z,63.45
2022-07-29T09:30:06.185Z,63.38
2022-07-29T09:31:09.245Z,63.32
2022-07-29T09:32:12.364Z,62.97
2022-07-29T09:33:14.931Z,62.76
2022-07-29T09:34:18.071Z,62.37
2022-07-29T09:35:23.030Z,62.45
2022-07-29T09:36:24.878Z,61.93
2022-07-29T09:37:28.591Z,62.02
2022-07-29T09:38:31.397Z,61.66
2022-07-29T09:39:36.909Z,61.75
2022-07-29T09:40:38.684Z,61.70
2022-07-29T09:41:50.190Z,61.86
2022-07-29T09:42:53.772Z,61.37
2022-07-29T09:43:57.976Z,61.23
2022-07-29T09:45:01.895Z,61.25
2022-07-29T09:46:13.841Z,61.23
2022-07-29T09:47:17.470Z,60.89
2022-07-29T09:48:20.930Z,61.22
2022-07-29T09:49:23.598Z,61.09
2022-07-29T09:50:37.266Z,61.10
2022-07-29T09:51:41.260Z,60.98
2022-07-29T09:52:49.211Z,61.25
2022-07-29T09:53:53.115Z,61.01
2022-07-29T09:55:07.137Z,61.18
2022-07-29T09:56:11.561Z,60.79
2022-07-29T09:57:30.361Z,61.01
2022-07-29T09:58:34.539Z,60.62
2022-07-29T09:59:36.281Z,60.65
2022-07-29T10:00:56.434Z,60.82
2022-07-29T10:01:58.656Z,60.68
2022-07-29T10:03:03.754Z,60.30
2022-07-29T10:04:06.717Z,59.99
2022-07-29T10:05:21.095Z,59.88
2022-07-29T10:06:22.817Z,59.40
2022-07-29T10:07:26.225Z,59.56
2022-07-29T10:08:27.985Z,59.07
2022-07-29T10:09:30.631Z,59.08
2022-07-29T10:10:35.135Z,58.73
2022-07-29T10:11:49.642Z,58.70
2022-07-29T10:12:55.296Z,58.09
2022-07-29T10:13:57.136Z,58.07
2022-07-29T10:15:00.023Z,57.94
2022-07-29T10:16:03.681Z,57.58
2022-07-29T10:17:08.217Z,57.33
2022-07-29T10:18:11.810Z,57.13
2022-07-29T10:19:14.668Z,56.96
2022-07-29T10:20:18.040Z,57.00
2022-07-29T10:21:34.742Z,56.83
2022-07-29T10:22:54.727Z,56.56
2022-07-29T10:24:01.106Z,56.55
2022-07-29T10:25:04.518Z,56.46
2022-07-29T10:26:07.141Z,56.05
2022-07-29T10:27:10.525Z,56.21
2022-07-29T10:28:16.256Z,56.02
2022-07-29T10:29:18.669Z,55.99
2022-07-29T10:30:25.716Z,56.09
2022-07-29T10:31:37.697Z,55.84
2022-07-29T10:32:54.314Z,55.77
2022-07-29T10:34:09.760Z,55.92
2022-07-29T10:35:33.126Z,55.66
2022-07-29T10:36:48.519Z,55.84
2022-07-29T10:38:06.287Z,55.73
2022-07-29T10:39:22.373Z,55.86
2022-07-29T10:40:49.100Z,55.96
2022-07-29T10:42:03.648Z,55.57
2022-07-29T10:43:18.465Z,55.57
2022-07-29T10:44:24.725Z,55.72
2022-07-29T10:45:27.012Z,55.58
2022-07-29T10:46:38.226Z,55.46
2022-07-29T10:47:41.777Z,55.34
2022-07-29T10:49:08.049Z,54.94
2022-07-29T10:50:16.915Z,54.69
2022-07-29T10:51:19.623Z,54.56
2022-07-29T10:52:26.594Z,54.14
2022-07-29T10:53:48.332Z,53.79
2022-07-29T10:54:52.527Z,53.50
2022-07-29T10:55:55.266Z,53.57
2022-07-29T10:57:12.531Z,53.22
2022-07-29T10:58:20.796Z,53.15
2022-07-29T10:59:32.310Z,53.29
2022-07-29T11:00:39.194Z,53.12
2022-07-29T11:03:10.536Z,53.03
2022-07-29T11:04:12.918Z,53.10
2022-07-29T11:05:19.933Z,52.85
2022-07-29T11:06:26.883Z,52.80
2022-07-29T11:07:41.606Z,52.65
2022-07-29T11:09:20.166Z,52.46
2022-07-29T11:10:26.967Z,52.42
2022-07-29T11:11:35.178Z,52.17
2022-07-29T11:12:50.581Z,51.92
2022-07-29T11:13:54.093Z,51.55
2022-07-29T11:14:58.939Z,51.66
2022-07-29T11:16:01.582Z,51.61
2022-07-29T11:17:06.979Z,51.43
2022-07-29T11:18:14.942Z,51.21
2022-07-29T11:19:26.698Z,51.17
2022-07-29T11:20:34.813Z,50.61
2022-07-29T11:21:53.680Z,50.49
2022-07-29T11:22:58.530Z,50.62
2022-07-29T11:24:14.749Z,50.62
2022-07-29T11:25:51.013Z,50.58
2022-07-29T11:26:45.089Z,50.44
2022-07-29T11:27:49.728Z,50.04
2022-07-29T11:28:56.129Z,50.23
2022-07-29T11:30:02.294Z,50.04
2022-07-29T11:31:06.323Z,49.57
2022-07-29T11:32:22.563Z,49.75
2022-07-29T11:33:54.423Z,49.69
2022-07-29T11:35:17.414Z,49.67
2022-07-29T11:36:20.001Z,49.78
2022-07-29T11:37:30.967Z,49.08
2022-07-29T11:38:33.877Z,49.33
2022-07-29T11:39:37.686Z,48.95
2022-07-29T11:40:40.373Z,49.23
2022-07-29T11:41:44.251Z,49.37
2022-07-29T11:42:48.160Z,48.96
2022-07-29T11:43:55.885Z,48.98
2022-07-29T11:44:58.889Z,49.05
2022-07-29T11:46:07.049Z,48.64
2022-07-29T11:47:13.454Z,49.00
2022-07-29T11:48:29.411Z,48.68
2022-07-29T11:49:35.011Z,49.12
2022-07-29T11:50:44.257Z,49.80
2022-07-29T11:51:52.588Z,49.79
2022-07-29T11:52:54.973Z,49.67
2022-07-29T11:54:04.471Z,49.72
2022-07-29T11:55:09.901Z,50.17
2022-07-29T11:56:17.198Z,49.88
2022-07-29T11:57:21.340Z,49.92
2022-07-29T11:58:25.121Z,50.28
2022-07-29T11:59:49.578Z,50.71
2022-07-29T12:02:37.292Z,50.87
2022-07-29T12:03:39.303Z,50.51
2022-07-29T12:04:49.519Z,50.65
2022-07-29T12:05:53.256Z,50.34
2022-07-29T12:06:56.194Z,50.96
2022-07-29T12:08:07.205Z,50.31
2022-07-29T12:09:18.550Z,50.39
2022-07-29T12:10:29.984Z,50.76
2022-07-29T12:11:33.537Z,51.06
2022-07-29T12:12:35.407Z,50.52
2022-07-29T12:13:41.030Z,50.86
2022-07-29T12:14:46.477Z,50.79
2022-07-29T12:15:59.723Z,50.39
2022-07-29T12:17:01.985Z,50.76
2022-07-29T12:18:18.321Z,50.75
2022-07-29T12:19:20.275Z,50.49
2022-07-29T12:20:27.415Z,50.22
2022-07-29T12:21:31.053Z,50.30
2022-07-29T12:22:34.978Z,50.40
2022-07-29T12:23:37.580Z,50.62
2022-07-29T12:24:44.902Z,49.83
2022-07-29T12:25:50.004Z,50.03
2022-07-29T12:26:52.299Z,50.38
2022-07-29T12:28:02.005Z,49.98
2022-07-29T12:29:11.431Z,50.33
2022-07-29T12:30:17.608Z,50.79
2022-07-29T12:31:42.835Z,50.09
2022-07-29T12:32:47.061Z,49.98
2022-07-29T12:33:55.805Z,49.80
2022-07-29T12:35:00.973Z,49.99
2022-07-29T12:36:06.949Z,49.66
2022-07-29T12:37:11.077Z,50.12
2022-07-29T12:38:14.178Z,49.69
2022-07-29T12:39:18.051Z,50.21
2022-07-29T12:40:21.826Z,50.05
2022-07-29T12:41:24.475Z,50.22
2022-07-29T12:42:26.235Z,49.81
2022-07-29T12:43:28.898Z,50.21
2022-07-29T12:44:44.858Z,50.36
2022-07-29T12:45:49.212Z,50.17
2022-07-29T12:47:03.897Z,49.77
2022-07-29T12:48:09.420Z,49.79
2022-07-29T12:49:23.175Z,50.09
2022-07-29T12:50:26.572Z,50.44
2022-07-29T12:51:33.213Z,49.81
2022-07-29T12:52:35.672Z,49.85
2022-07-29T12:53:38.835Z,50.03
2022-07-29T12:54:48.026Z,49.97
2022-07-29T12:55:53.236Z,50.03
2022-07-29T12:57:00.442Z,49.96
2022-07-29T12:58:03.458Z,50.08
2022-07-29T12:59:15.420Z,49.81
2022-07-29T13:00:18.642Z,49.95
2022-07-29T13:01:21.767Z,49.68
2022-07-29T13:02:23.717Z,50.07
2022-07-29T13:03:26.418Z,49.69
2022-07-29T13:04:32.761Z,49.76
2022-07-29T13:05:44.553Z,49.64
2022-07-29T13:06:49.789Z,50.30
2022-07-29T13:07:55.791Z,49.95
2022-07-29T13:09:08.892Z,49.94
2022-07-29T13:10:14.188Z,50.42
2022-07-29T13:11:29.425Z,50.02
2022-07-29T13:12:33.311Z,49.74
2022-07-29T13:13:34.922Z,49.33
2022-07-29T13:14:39.898Z,49.52
2022-07-29T13:15:43.178Z,49.42
2022-07-29T13:17:07.092Z,49.16
2022-07-29T13:18:30.537Z,49.66
2022-07-29T13:19:38.707Z,49.47
2022-07-29T13:20:41.297Z,49.83
2022-07-29T13:21:43.458Z,49.71
2022-07-29T13:22:50.187Z,49.28
2022-07-29T13:23:51.796Z,49.65
2022-07-29T13:24:56.760Z,50.01
2022-07-29T13:26:06.505Z,50.02
2022-07-29T13:27:09.223Z,49.78
2022-07-29T13:28:12.591Z,49.45
2022-07-29T13:29:14.737Z,50.01
2022-07-29T13:30:17.496Z,49.53
2022-07-29T13:31:19.283Z,49.66
2022-07-29T13:32:28.735Z,49.97
2022-07-29T13:33:31.174Z,49.80
2022-07-29T13:34:33.701Z,50.02
2022-07-29T13:35:39.923Z,49.90
2022-07-29T13:36:41.930Z,50.30
2022-07-29T13:37:44.556Z,50.00
2022-07-29T13:38:46.219Z,49.80
2022-07-29T13:39:52.798Z,50.05
2022-07-29T13:40:55.672Z,50.01
2022-07-29T13:41:57.794Z,49.59
2022-07-29T13:43:00.521Z,49.93
2022-07-29T13:44:02.096Z,49.88
2022-07-29T13:45:05.941Z,50.62
2022-07-29T13:46:07.632Z,50.20
2022-07-29T13:47:10.648Z,50.27
2022-07-29T13:48:13.248Z,50.30
2022-07-29T13:49:15.884Z,50.73
2022-07-29T13:50:18.535Z,50.59
2022-07-29T13:51:22.501Z,50.43
2022-07-29T13:52:24.132Z,50.29
2022-07-29T13:53:28.716Z,50.12
2022-07-29T13:54:30.355Z,49.96
2022-07-29T13:55:32.943Z,49.76
2022-07-29T13:56:35.974Z,50.21
2022-07-29T13:57:38.490Z,50.13
2022-07-29T13:58:41.142Z,49.45
2022-07-29T13:59:43.466Z,50.06
2022-07-29T14:00:47.522Z,49.52
2022-07-29T14:01:50.111Z,49.20
2022-07-29T14:02:51.701Z,49.34
2022-07-29T14:03:54.309Z,49.01
2022-07-29T14:04:58.627Z,49.07
2022-07-29T14:06:00.935Z,49.17
2022-07-29T14:07:05.736Z,48.59
2022-07-29T14:08:08.499Z,48.20
2022-07-29T14:09:10.101Z,48.35